sensor_id;sensor_type;location;lat;lon;timestamp;temperature;humidity
21849;DHT22;11089;49.852;19.700;2023-03-20T00:02:42;9.40;99.90
21849;DHT22;11089;49.852;19.700;2023-03-20T00:05:43;9.40;99.90
21849;DHT22;11089;49.852;19.700;2023-03-20T00:08:46;9.40;99.90
21849;DHT22;11089;49.852;19.700;2023-03-20T00:11:49;9.30;99.90
21849;DHT22;11089;49.852;19.700;2023-03-20T00:14:50;9.30;99.90
21849;DHT22;11089;49.852;19.700;2023-03-20T00:17:52;9.30;99.90
21849;DHT22;11089;49.852;19.700;2023-03-20T00:20:53;9.40;99.90
21849;DHT22;11089;49.852;19.700;2023-03-20T00:23:54;9.30;99.90
21849;DHT22;11089;49.852;19.700;2023-03-20T00:26:56;9.30;99.90
21849;DHT22;11089;49.852;19.700;2023-03-20T00:29:57;9.30;99.90
21849;DHT22;11089;49.852;19.700;2023-03-20T00:32:58;9.20;99.90
21849;DHT22;11089;49.852;19.700;2023-03-20T00:35:59;9.30;99.90
21849;DHT22;11089;49.852;19.700;2023-03-20T00:39:00;9.20;99.90
21849;DHT22;11089;49.852;19.700;2023-03-20T00:42:03;9.20;99.90
21849;DHT22;11089;49.852;19.700;2023-03-20T00:45:14;9.20;99.90
21849;DHT22;11089;49.852;19.700;2023-03-20T00:48:16;9.20;99.90
21849;DHT22;11089;49.852;19.700;2023-03-20T00:51:17;9.20;99.90
21849;DHT22;11089;49.852;19.700;2023-03-20T00:54:18;9.20;99.90
21849;DHT22;11089;49.852;19.700;2023-03-20T00:57:31;9.20;99.90
21849;DHT22;11089;49.852;19.700;2023-03-20T01:00:38;9.20;99.90
21849;DHT22;11089;49.852;19.700;2023-03-20T01:03:40;9.10;99.90
21849;DHT22;11089;49.852;19.700;2023-03-20T01:06:41;9.00;99.90
21849;DHT22;11089;49.852;19.700;2023-03-20T01:09:42;9.10;99.90
21849;DHT22;11089;49.852;19.700;2023-03-20T01:12:43;9.50;1.00
21849;DHT22;11089;49.852;19.700;2023-03-20T01:15:47;9.10;99.90
21849;DHT22;11089;49.852;19.700;2023-03-20T01:18:49;8.90;99.90
21849;DHT22;11089;49.852;19.700;2023-03-20T01:21:50;8.90;99.90
21849;DHT22;11089;49.852;19.700;2023-03-20T01:24:51;8.90;99.90
21849;DHT22;11089;49.852;19.700;2023-03-20T01:27:53;8.80;99.90
21849;DHT22;11089;49.852;19.700;2023-03-20T01:30:54;8.80;99.90
21849;DHT22;11089;49.852;19.700;2023-03-20T01:33:55;8.80;99.90
21849;DHT22;11089;49.852;19.700;2023-03-20T01:36:57;8.70;99.90
21849;DHT22;11089;49.852;19.700;2023-03-20T01:40:01;8.60;99.90
21849;DHT22;11089;49.852;19.700;2023-03-20T01:43:04;8.80;99.90
21849;DHT22;11089;49.852;19.700;2023-03-20T01:46:27;8.70;99.90
21849;DHT22;11089;49.852;19.700;2023-03-20T01:52:45;8.70;99.90
21849;DHT22;11089;49.852;19.700;2023-03-20T01:55:47;8.60;99.90
21849;DHT22;11089;49.852;19.700;2023-03-20T01:58:59;9.50;99.90
21849;DHT22;11089;49.852;19.700;2023-03-20T02:02:04;9.00;99.90
21849;DHT22;11089;49.852;19.700;2023-03-20T02:05:09;8.70;99.90
21849;DHT22;11089;49.852;19.700;2023-03-20T02:08:17;8.70;99.90
21849;DHT22;11089;49.852;19.700;2023-03-20T02:11:22;8.60;99.90
21849;DHT22;11089;49.852;19.700;2023-03-20T02:14:24;8.50;99.90
21849;DHT22;11089;49.852;19.700;2023-03-20T02:17:25;8.40;99.90
21849;DHT22;11089;49.852;19.700;2023-03-20T02:56:27;8.10;99.90
21849;DHT22;11089;49.852;19.700;2023-03-20T03:06:28;8.00;99.90
21849;DHT22;11089;49.852;19.700;2023-03-20T03:09:44;8.00;99.90
21849;DHT22;11089;49.852;19.700;2023-03-20T03:12:48;8.10;99.90
21849;DHT22;11089;49.852;19.700;2023-03-20T03:15:54;8.10;99.90
21849;DHT22;11089;49.852;19.700;2023-03-20T03:19:17;8.10;99.90
21849;DHT22;11089;49.852;19.700;2023-03-20T03:22:19;8.00;99.90
21849;DHT22;11089;49.852;19.700;2023-03-20T03:25:24;8.10;99.90
21849;DHT22;11089;49.852;19.700;2023-03-20T03:31:38;8.10;99.90
21849;DHT22;11089;49.852;19.700;2023-03-20T03:34:39;8.10;99.90
21849;DHT22;11089;49.852;19.700;2023-03-20T03:41:23;8.20;99.90
21849;DHT22;11089;49.852;19.700;2023-03-20T03:44:54;8.30;99.90
21849;DHT22;11089;49.852;19.700;2023-03-20T03:48:06;8.30;99.90
21849;DHT22;11089;49.852;19.700;2023-03-20T03:51:12;8.20;99.90
21849;DHT22;11089;49.852;19.700;2023-03-20T03:54:23;8.20;99.90
21849;DHT22;11089;49.852;19.700;2023-03-20T03:57:38;8.20;99.90
21849;DHT22;11089;49.852;19.700;2023-03-20T04:00:41;8.10;99.90
21849;DHT22;11089;49.852;19.700;2023-03-20T04:03:48;8.20;99.90
21849;DHT22;11089;49.852;19.700;2023-03-20T04:06:51;8.00;99.90
21849;DHT22;11089;49.852;19.700;2023-03-20T04:09:52;8.10;99.90
21849;DHT22;11089;49.852;19.700;2023-03-20T04:12:53;8.10;99.90
21849;DHT22;11089;49.852;19.700;2023-03-20T04:15:54;8.10;99.90
21849;DHT22;11089;49.852;19.700;2023-03-20T04:18:55;8.10;99.90
21849;DHT22;11089;49.852;19.700;2023-03-20T04:21:56;8.30;1.00
21849;DHT22;11089;49.852;19.700;2023-03-20T04:24:57;8.20;99.90
21849;DHT22;11089;49.852;19.700;2023-03-20T04:27:58;8.20;99.90
21849;DHT22;11089;49.852;19.700;2023-03-20T04:31:00;8.70;1.00
21849;DHT22;11089;49.852;19.700;2023-03-20T04:34:01;8.30;99.90
21849;DHT22;11089;49.852;19.700;2023-03-20T04:37:02;8.30;99.90
21849;DHT22;11089;49.852;19.700;2023-03-20T04:40:05;8.30;99.90
21849;DHT22;11089;49.852;19.700;2023-03-20T04:43:07;8.40;99.90
21849;DHT22;11089;49.852;19.700;2023-03-20T04:46:08;8.40;99.90
21849;DHT22;11089;49.852;19.700;2023-03-20T04:49:09;8.40;99.90
21849;DHT22;11089;49.852;19.700;2023-03-20T04:52:10;8.40;99.90
21849;DHT22;11089;49.852;19.700;2023-03-20T04:55:11;8.40;99.90
21849;DHT22;11089;49.852;19.700;2023-03-20T04:58:12;8.40;99.90
21849;DHT22;11089;49.852;19.700;2023-03-20T05:01:13;8.40;99.90
21849;DHT22;11089;49.852;19.700;2023-03-20T05:04:14;8.30;99.90
21849;DHT22;11089;49.852;19.700;2023-03-20T05:07:15;8.20;99.90
21849;DHT22;11089;49.852;19.700;2023-03-20T05:10:17;8.30;99.90
21849;DHT22;11089;49.852;19.700;2023-03-20T05:13:18;8.30;99.90
21849;DHT22;11089;49.852;19.700;2023-03-20T05:16:19;8.10;99.90
21849;DHT22;11089;49.852;19.700;2023-03-20T05:19:20;8.10;99.90
21849;DHT22;11089;49.852;19.700;2023-03-20T05:22:21;8.00;99.90
21849;DHT22;11089;49.852;19.700;2023-03-20T05:25:21;8.00;99.90
21849;DHT22;11089;49.852;19.700;2023-03-20T05:28:22;8.20;99.90
21849;DHT22;11089;49.852;19.700;2023-03-20T05:31:23;8.30;99.90
21849;DHT22;11089;49.852;19.700;2023-03-20T05:34:24;8.30;99.90
21849;DHT22;11089;49.852;19.700;2023-03-20T05:37:25;8.20;99.90
21849;DHT22;11089;49.852;19.700;2023-03-20T05:40:26;8.20;99.90
21849;DHT22;11089;49.852;19.700;2023-03-20T05:43:27;8.20;99.90
21849;DHT22;11089;49.852;19.700;2023-03-20T05:46:28;8.10;99.90
21849;DHT22;11089;49.852;19.700;2023-03-20T05:49:29;8.10;99.90
21849;DHT22;11089;49.852;19.700;2023-03-20T05:52:30;8.10;99.90
21849;DHT22;11089;49.852;19.700;2023-03-20T05:55:31;8.10;99.90
21849;DHT22;11089;49.852;19.700;2023-03-20T05:58:33;8.10;99.90
21849;DHT22;11089;49.852;19.700;2023-03-20T06:01:34;8.10;99.90
21849;DHT22;11089;49.852;19.700;2023-03-20T06:04:35;8.20;99.90
21849;DHT22;11089;49.852;19.700;2023-03-20T06:07:36;8.20;99.90
21849;DHT22;11089;49.852;19.700;2023-03-20T06:10:37;8.10;99.90
21849;DHT22;11089;49.852;19.700;2023-03-20T06:13:38;8.10;99.90
21849;DHT22;11089;49.852;19.700;2023-03-20T06:16:39;8.10;99.90
21849;DHT22;11089;49.852;19.700;2023-03-20T06:19:40;8.10;99.90
21849;DHT22;11089;49.852;19.700;2023-03-20T06:22:41;8.10;99.90
21849;DHT22;11089;49.852;19.700;2023-03-20T06:25:42;8.20;99.90
21849;DHT22;11089;49.852;19.700;2023-03-20T06:28:43;8.30;99.90
21849;DHT22;11089;49.852;19.700;2023-03-20T06:31:44;8.20;99.90
21849;DHT22;11089;49.852;19.700;2023-03-20T06:34:45;8.30;99.90
21849;DHT22;11089;49.852;19.700;2023-03-20T06:37:47;8.30;99.90
21849;DHT22;11089;49.852;19.700;2023-03-20T06:40:48;8.50;99.90
21849;DHT22;11089;49.852;19.700;2023-03-20T06:43:49;8.70;99.90
21849;DHT22;11089;49.852;19.700;2023-03-20T06:46:50;8.80;99.90
21849;DHT22;11089;49.852;19.700;2023-03-20T06:49:51;9.00;99.90
21849;DHT22;11089;49.852;19.700;2023-03-20T06:52:52;9.20;99.90
21849;DHT22;11089;49.852;19.700;2023-03-20T06:55:53;9.20;99.90
21849;DHT22;11089;49.852;19.700;2023-03-20T06:58:54;9.20;99.90
21849;DHT22;11089;49.852;19.700;2023-03-20T07:01:55;9.20;99.90
21849;DHT22;11089;49.852;19.700;2023-03-20T07:04:56;9.40;99.90
21849;DHT22;11089;49.852;19.700;2023-03-20T07:07:58;9.60;99.90
21849;DHT22;11089;49.852;19.700;2023-03-20T07:10:59;9.80;99.90
21849;DHT22;11089;49.852;19.700;2023-03-20T07:14:00;10.00;99.90
21849;DHT22;11089;49.852;19.700;2023-03-20T07:17:01;10.30;99.90
21849;DHT22;11089;49.852;19.700;2023-03-20T07:20:03;10.70;1.00
21849;DHT22;11089;49.852;19.700;2023-03-20T07:23:04;10.60;99.90
21849;DHT22;11089;49.852;19.700;2023-03-20T07:26:05;10.70;99.90
21849;DHT22;11089;49.852;19.700;2023-03-20T07:29:06;10.80;99.90
21849;DHT22;11089;49.852;19.700;2023-03-20T07:32:07;10.90;99.90
21849;DHT22;11089;49.852;19.700;2023-03-20T07:35:08;11.10;99.90
21849;DHT22;11089;49.852;19.700;2023-03-20T07:38:09;11.20;99.90
21849;DHT22;11089;49.852;19.700;2023-03-20T07:41:10;11.20;99.90
21849;DHT22;11089;49.852;19.700;2023-03-20T07:44:11;11.30;99.90
21849;DHT22;11089;49.852;19.700;2023-03-20T07:47:13;11.30;99.90
21849;DHT22;11089;49.852;19.700;2023-03-20T07:50:15;11.40;99.90
21849;DHT22;11089;49.852;19.700;2023-03-20T07:53:16;11.40;99.90
21849;DHT22;11089;49.852;19.700;2023-03-20T07:56:17;11.70;99.90
21849;DHT22;11089;49.852;19.700;2023-03-20T07:59:18;12.00;99.90
21849;DHT22;11089;49.852;19.700;2023-03-20T08:02:19;12.20;99.90
21849;DHT22;11089;49.852;19.700;2023-03-20T08:05:20;12.10;99.90
21849;DHT22;11089;49.852;19.700;2023-03-20T08:08:21;12.30;99.90
21849;DHT22;11089;49.852;19.700;2023-03-20T08:11:22;12.50;99.90
21849;DHT22;11089;49.852;19.700;2023-03-20T08:14:23;12.70;99.90
21849;DHT22;11089;49.852;19.700;2023-03-20T08:17:24;12.60;99.90
21849;DHT22;11089;49.852;19.700;2023-03-20T08:20:25;12.80;99.90
21849;DHT22;11089;49.852;19.700;2023-03-20T08:23:26;13.20;99.90
21849;DHT22;11089;49.852;19.700;2023-03-20T08:26:27;13.60;99.90
21849;DHT22;11089;49.852;19.700;2023-03-20T08:29:28;14.00;99.90
21849;DHT22;11089;49.852;19.700;2023-03-20T08:32:30;14.30;99.90
21849;DHT22;11089;49.852;19.700;2023-03-20T08:35:31;14.60;99.90
21849;DHT22;11089;49.852;19.700;2023-03-20T08:38:32;14.90;99.90
21849;DHT22;11089;49.852;19.700;2023-03-20T08:41:35;15.50;99.90
21849;DHT22;11089;49.852;19.700;2023-03-20T08:44:36;15.40;99.90
21849;DHT22;11089;49.852;19.700;2023-03-20T08:47:37;15.50;99.90
21849;DHT22;11089;49.852;19.700;2023-03-20T08:50:38;15.40;99.90
21849;DHT22;11089;49.852;19.700;2023-03-20T08:53:39;18.00;99.90
21849;DHT22;11089;49.852;19.700;2023-03-20T08:56:40;20.00;99.90
21849;DHT22;11089;49.852;19.700;2023-03-20T08:59:41;18.30;99.90
21849;DHT22;11089;49.852;19.700;2023-03-20T09:02:43;18.80;99.90
21849;DHT22;11089;49.852;19.700;2023-03-20T09:05:48;19.50;99.90
21849;DHT22;11089;49.852;19.700;2023-03-20T09:08:49;18.10;99.90
21849;DHT22;11089;49.852;19.700;2023-03-20T09:11:50;17.10;99.90
21849;DHT22;11089;49.852;19.700;2023-03-20T09:14:51;16.60;99.90
21849;DHT22;11089;49.852;19.700;2023-03-20T09:17:52;16.30;99.90
21849;DHT22;11089;49.852;19.700;2023-03-20T09:20:53;15.70;99.90
21849;DHT22;11089;49.852;19.700;2023-03-20T09:23:56;15.50;99.90
21849;DHT22;11089;49.852;19.700;2023-03-20T09:26:57;15.60;99.90
21849;DHT22;11089;49.852;19.700;2023-03-20T09:29:58;15.30;99.90
21849;DHT22;11089;49.852;19.700;2023-03-20T09:32:59;15.30;99.90
21849;DHT22;11089;49.852;19.700;2023-03-20T09:36:00;16.00;99.90
21849;DHT22;11089;49.852;19.700;2023-03-20T09:39:01;16.20;99.90
21849;DHT22;11089;49.852;19.700;2023-03-20T09:52:25;18.00;99.90
21849;DHT22;11089;49.852;19.700;2023-03-20T09:55:36;18.40;99.90
21849;DHT22;11089;49.852;19.700;2023-03-20T09:58:38;20.50;99.90
21849;DHT22;11089;49.852;19.700;2023-03-20T10:01:49;21.10;99.90
21849;DHT22;11089;49.852;19.700;2023-03-20T10:04:53;19.80;99.90
21849;DHT22;11089;49.852;19.700;2023-03-20T10:07:58;18.90;99.90
21849;DHT22;11089;49.852;19.700;2023-03-20T10:21:14;17.90;99.90
21849;DHT22;11089;49.852;19.700;2023-03-20T10:24:35;17.30;99.90
21849;DHT22;11089;49.852;19.700;2023-03-20T10:27:45;17.40;99.90
21849;DHT22;11089;49.852;19.700;2023-03-20T10:34:23;17.20;99.90
21849;DHT22;11089;49.852;19.700;2023-03-20T10:37:43;16.90;99.90
21849;DHT22;11089;49.852;19.700;2023-03-20T10:40:47;16.70;99.90
21849;DHT22;11089;49.852;19.700;2023-03-20T10:43:50;16.30;99.90
21849;DHT22;11089;49.852;19.700;2023-03-20T10:46:52;16.10;99.90
21849;DHT22;11089;49.852;19.700;2023-03-20T10:50:00;16.00;99.90
21849;DHT22;11089;49.852;19.700;2023-03-20T10:53:03;16.00;99.90
21849;DHT22;11089;49.852;19.700;2023-03-20T10:56:09;16.00;99.90
21849;DHT22;11089;49.852;19.700;2023-03-20T10:59:24;15.90;99.90
21849;DHT22;11089;49.852;19.700;2023-03-20T11:02:30;15.90;99.90
21849;DHT22;11089;49.852;19.700;2023-03-20T11:05:34;15.70;99.90
21849;DHT22;11089;49.852;19.700;2023-03-20T11:08:41;15.80;99.90
21849;DHT22;11089;49.852;19.700;2023-03-20T11:11:47;16.00;99.90
21849;DHT22;11089;49.852;19.700;2023-03-20T11:14:48;16.20;99.90
21849;DHT22;11089;49.852;19.700;2023-03-20T11:17:54;16.50;99.90
21849;DHT22;11089;49.852;19.700;2023-03-20T11:20:56;16.50;99.90
21849;DHT22;11089;49.852;19.700;2023-03-20T11:23:57;16.30;99.90
21849;DHT22;11089;49.852;19.700;2023-03-20T11:27:14;16.50;99.90
21849;DHT22;11089;49.852;19.700;2023-03-20T11:30:15;16.10;99.90
21849;DHT22;11089;49.852;19.700;2023-03-20T11:33:19;16.20;99.90
21849;DHT22;11089;49.852;19.700;2023-03-20T11:36:27;16.30;99.90
21849;DHT22;11089;49.852;19.700;2023-03-20T11:39:32;16.30;99.90
21849;DHT22;11089;49.852;19.700;2023-03-20T11:42:33;16.40;99.90
21849;DHT22;11089;49.852;19.700;2023-03-20T11:45:44;16.30;99.90
21849;DHT22;11089;49.852;19.700;2023-03-20T11:48:48;16.10;99.90
21849;DHT22;11089;49.852;19.700;2023-03-20T11:52:09;16.10;99.90
21849;DHT22;11089;49.852;19.700;2023-03-20T11:55:32;16.10;99.90
21849;DHT22;11089;49.852;19.700;2023-03-20T11:58:36;15.90;99.90
21849;DHT22;11089;49.852;19.700;2023-03-20T12:01:44;15.90;99.90
21849;DHT22;11089;49.852;19.700;2023-03-20T12:04:46;15.80;99.90
21849;DHT22;11089;49.852;19.700;2023-03-20T12:07:48;16.60;99.90
21849;DHT22;11089;49.852;19.700;2023-03-20T12:11:05;17.80;99.90
21849;DHT22;11089;49.852;19.700;2023-03-20T12:14:17;18.90;99.90
21849;DHT22;11089;49.852;19.700;2023-03-20T12:17:52;22.40;99.90
21849;DHT22;11089;49.852;19.700;2023-03-20T12:24:39;24.70;99.90
21849;DHT22;11089;49.852;19.700;2023-03-20T12:27:50;23.20;99.90
21849;DHT22;11089;49.852;19.700;2023-03-20T12:34:02;20.10;99.90
21849;DHT22;11089;49.852;19.700;2023-03-20T12:37:09;20.50;99.90
21849;DHT22;11089;49.852;19.700;2023-03-20T12:40:15;20.30;99.90
21849;DHT22;11089;49.852;19.700;2023-03-20T12:43:33;19.50;99.90
21849;DHT22;11089;49.852;19.700;2023-03-20T12:50:06;18.20;99.90
21849;DHT22;11089;49.852;19.700;2023-03-20T13:00:09;17.30;99.90
21849;DHT22;11089;49.852;19.700;2023-03-20T13:13:35;16.40;99.90
21849;DHT22;11089;49.852;19.700;2023-03-20T13:23:45;16.00;99.90
21849;DHT22;11089;49.852;19.700;2023-03-20T13:30:30;15.90;99.90
21849;DHT22;11089;49.852;19.700;2023-03-20T13:43:45;15.80;99.90
21849;DHT22;11089;49.852;19.700;2023-03-20T13:46:58;15.60;99.90
21849;DHT22;11089;49.852;19.700;2023-03-20T14:09:35;15.20;1.00
21849;DHT22;11089;49.852;19.700;2023-03-20T14:12:37;15.60;1.00
21849;DHT22;11089;49.852;19.700;2023-03-20T14:15:43;15.70;1.00
21849;DHT22;11089;49.852;19.700;2023-03-20T14:18:48;16.00;1.00
21849;DHT22;11089;49.852;19.700;2023-03-20T14:21:52;16.10;1.00
21849;DHT22;11089;49.852;19.700;2023-03-20T14:24:57;16.30;99.90
21849;DHT22;11089;49.852;19.700;2023-03-20T14:31:26;16.50;1.00
21849;DHT22;11089;49.852;19.700;2023-03-20T14:34:48;15.70;99.90
21849;DHT22;11089;49.852;19.700;2023-03-20T14:41:28;15.60;99.90
21849;DHT22;11089;49.852;19.700;2023-03-20T14:48:11;15.60;99.90
21849;DHT22;11089;49.852;19.700;2023-03-20T14:51:30;15.00;1.00
21849;DHT22;11089;49.852;19.700;2023-03-20T14:54:39;15.20;1.00
21849;DHT22;11089;49.852;19.700;2023-03-20T14:57:41;15.00;1.00
21849;DHT22;11089;49.852;19.700;2023-03-20T15:00:46;15.00;1.00
21849;DHT22;11089;49.852;19.700;2023-03-20T15:10:24;14.80;1.00
21849;DHT22;11089;49.852;19.700;2023-03-20T15:16:30;14.10;18.00
21849;DHT22;11089;49.852;19.700;2023-03-20T15:19:31;14.70;99.90
21849;DHT22;11089;49.852;19.700;2023-03-20T15:22:50;14.20;1.00
21849;DHT22;11089;49.852;19.700;2023-03-20T15:29:03;15.40;1.00
21849;DHT22;11089;49.852;19.700;2023-03-20T15:32:06;14.60;1.00
21849;DHT22;11089;49.852;19.700;2023-03-20T15:35:09;14.50;1.00
21849;DHT22;11089;49.852;19.700;2023-03-20T15:38:13;14.40;1.00
21849;DHT22;11089;49.852;19.700;2023-03-20T15:41:33;15.10;1.00
21849;DHT22;11089;49.852;19.700;2023-03-20T15:44:38;13.90;99.90
21849;DHT22;11089;49.852;19.700;2023-03-20T15:47:41;14.00;99.90
21849;DHT22;11089;49.852;19.700;2023-03-20T15:50:45;14.80;1.00
21849;DHT22;11089;49.852;19.700;2023-03-20T15:53:48;14.20;1.00
21849;DHT22;11089;49.852;19.700;2023-03-20T15:56:50;14.50;1.00
21849;DHT22;11089;49.852;19.700;2023-03-20T15:59:52;14.20;1.00
21849;DHT22;11089;49.852;19.700;2023-03-20T16:02:53;15.00;1.00
21849;DHT22;11089;49.852;19.700;2023-03-20T16:05:58;14.10;1.00
21849;DHT22;11089;49.852;19.700;2023-03-20T16:09:06;13.50;90.90
21849;DHT22;11089;49.852;19.700;2023-03-20T16:12:14;13.80;99.90
21849;DHT22;11089;49.852;19.700;2023-03-20T16:15:17;14.50;99.90
21849;DHT22;11089;49.852;19.700;2023-03-20T16:18:19;14.40;99.90
21849;DHT22;11089;49.852;19.700;2023-03-20T16:21:27;13.30;99.90
21849;DHT22;11089;49.852;19.700;2023-03-20T16:24:33;14.30;99.90
21849;DHT22;11089;49.852;19.700;2023-03-20T16:33:39;13.00;1.00
21849;DHT22;11089;49.852;19.700;2023-03-20T16:36:40;13.40;1.00
21849;DHT22;11089;49.852;19.700;2023-03-20T16:39:41;14.50;1.00
21849;DHT22;11089;49.852;19.700;2023-03-20T16:42:43;13.20;65.60
21849;DHT22;11089;49.852;19.700;2023-03-20T16:45:51;13.10;98.20
21849;DHT22;11089;49.852;19.700;2023-03-20T16:48:56;12.50;1.00
21849;DHT22;11089;49.852;19.700;2023-03-20T16:51:59;13.00;99.90
21849;DHT22;11089;49.852;19.700;2023-03-20T16:55:02;12.90;99.90
21849;DHT22;11089;49.852;19.700;2023-03-20T16:58:05;13.00;99.90
21849;DHT22;11089;49.852;19.700;2023-03-20T17:01:13;12.90;99.90
21849;DHT22;11089;49.852;19.700;2023-03-20T17:04:21;12.30;1.00
21849;DHT22;11089;49.852;19.700;2023-03-20T17:07:23;12.90;99.90
21849;DHT22;11089;49.852;19.700;2023-03-20T17:10:27;12.50;1.00
21849;DHT22;11089;49.852;19.700;2023-03-20T17:13:29;13.20;1.00
21849;DHT22;11089;49.852;19.700;2023-03-20T17:16:31;12.90;1.00
21849;DHT22;11089;49.852;19.700;2023-03-20T17:19:32;12.70;1.00
21849;DHT22;11089;49.852;19.700;2023-03-20T17:22:33;12.70;1.00
21849;DHT22;11089;49.852;19.700;2023-03-20T17:25:34;12.50;1.00
21849;DHT22;11089;49.852;19.700;2023-03-20T17:28:36;12.30;1.00
21849;DHT22;11089;49.852;19.700;2023-03-20T17:31:37;11.50;1.00
21849;DHT22;11089;49.852;19.700;2023-03-20T17:34:39;12.40;1.00
21849;DHT22;11089;49.852;19.700;2023-03-20T17:37:40;12.30;1.00
21849;DHT22;11089;49.852;19.700;2023-03-20T17:40:41;12.30;1.00
21849;DHT22;11089;49.852;19.700;2023-03-20T17:43:42;11.50;1.00
21849;DHT22;11089;49.852;19.700;2023-03-20T17:46:44;12.20;1.00
21849;DHT22;11089;49.852;19.700;2023-03-20T17:49:45;12.60;1.00
21849;DHT22;11089;49.852;19.700;2023-03-20T17:52:46;12.90;1.00
21849;DHT22;11089;49.852;19.700;2023-03-20T17:55:47;12.20;1.00
21849;DHT22;11089;49.852;19.700;2023-03-20T17:58:48;12.10;1.00
21849;DHT22;11089;49.852;19.700;2023-03-20T18:01:49;12.20;1.00
21849;DHT22;11089;49.852;19.700;2023-03-20T18:04:50;12.70;1.00
21849;DHT22;11089;49.852;19.700;2023-03-20T18:07:51;12.10;1.00
21849;DHT22;11089;49.852;19.700;2023-03-20T18:10:52;12.00;1.00
21849;DHT22;11089;49.852;19.700;2023-03-20T18:13:54;12.50;36.40
21849;DHT22;11089;49.852;19.700;2023-03-20T18:16:55;11.80;1.00
21849;DHT22;11089;49.852;19.700;2023-03-20T18:19:56;11.70;1.00
21849;DHT22;11089;49.852;19.700;2023-03-20T18:22:57;12.30;1.00
21849;DHT22;11089;49.852;19.700;2023-03-20T18:25:58;11.70;1.00
21849;DHT22;11089;49.852;19.700;2023-03-20T18:28:59;11.10;1.00
21849;DHT22;11089;49.852;19.700;2023-03-20T18:32:00;11.60;1.00
21849;DHT22;11089;49.852;19.700;2023-03-20T18:35:01;11.00;99.90
21849;DHT22;11089;49.852;19.700;2023-03-20T18:38:03;11.20;89.60
21849;DHT22;11089;49.852;19.700;2023-03-20T18:41:04;12.40;67.50
21849;DHT22;11089;49.852;19.700;2023-03-20T18:44:05;11.70;99.90
21849;DHT22;11089;49.852;19.700;2023-03-20T18:47:08;10.90;99.90
21849;DHT22;11089;49.852;19.700;2023-03-20T18:50:22;11.80;1.00
21849;DHT22;11089;49.852;19.700;2023-03-20T18:53:23;10.60;99.90
21849;DHT22;11089;49.852;19.700;2023-03-20T18:56:26;11.40;1.00
21849;DHT22;11089;49.852;19.700;2023-03-20T18:59:27;10.50;1.00
21849;DHT22;11089;49.852;19.700;2023-03-20T19:02:28;11.10;99.90
21849;DHT22;11089;49.852;19.700;2023-03-20T19:05:30;11.40;1.00
21849;DHT22;11089;49.852;19.700;2023-03-20T19:08:31;10.90;1.00
21849;DHT22;11089;49.852;19.700;2023-03-20T19:11:37;10.90;1.00
21849;DHT22;11089;49.852;19.700;2023-03-20T19:14:38;11.00;99.90
21849;DHT22;11089;49.852;19.700;2023-03-20T19:17:40;10.90;1.00
21849;DHT22;11089;49.852;19.700;2023-03-20T19:20:49;10.50;1.00
21849;DHT22;11089;49.852;19.700;2023-03-20T19:23:55;10.60;1.00
21849;DHT22;11089;49.852;19.700;2023-03-20T19:26:56;11.10;1.00
21849;DHT22;11089;49.852;19.700;2023-03-20T19:29:57;11.60;99.90
21849;DHT22;11089;49.852;19.700;2023-03-20T19:33:00;10.90;59.10
21849;DHT22;11089;49.852;19.700;2023-03-20T19:36:01;11.40;99.90
21849;DHT22;11089;49.852;19.700;2023-03-20T19:39:05;11.30;99.90
21849;DHT22;11089;49.852;19.700;2023-03-20T19:42:06;10.90;99.90
21849;DHT22;11089;49.852;19.700;2023-03-20T19:45:08;11.50;99.90
21849;DHT22;11089;49.852;19.700;2023-03-20T19:48:20;10.90;78.30
21849;DHT22;11089;49.852;19.700;2023-03-20T19:51:25;11.00;1.00
21849;DHT22;11089;49.852;19.700;2023-03-20T19:54:26;10.90;1.00
21849;DHT22;11089;49.852;19.700;2023-03-20T19:57:28;11.00;1.00
21849;DHT22;11089;49.852;19.700;2023-03-20T20:00:30;10.90;1.00
21849;DHT22;11089;49.852;19.700;2023-03-20T20:03:32;10.90;1.00
21849;DHT22;11089;49.852;19.700;2023-03-20T20:06:33;10.80;99.90
21849;DHT22;11089;49.852;19.700;2023-03-20T20:09:34;10.90;99.90
21849;DHT22;11089;49.852;19.700;2023-03-20T20:12:35;10.70;99.90
21849;DHT22;11089;49.852;19.700;2023-03-20T20:15:38;10.60;90.20
21849;DHT22;11089;49.852;19.700;2023-03-20T20:18:39;10.70;99.90
21849;DHT22;11089;49.852;19.700;2023-03-20T20:21:40;10.80;1.00
21849;DHT22;11089;49.852;19.700;2023-03-20T20:24:41;10.70;99.90
21849;DHT22;11089;49.852;19.700;2023-03-20T20:27:42;10.80;99.90
21849;DHT22;11089;49.852;19.700;2023-03-20T20:30:48;10.80;1.00
21849;DHT22;11089;49.852;19.700;2023-03-20T20:33:49;11.10;1.00
21849;DHT22;11089;49.852;19.700;2023-03-20T20:36:50;11.20;99.90
21849;DHT22;11089;49.852;19.700;2023-03-20T20:39:51;11.00;1.00
21849;DHT22;11089;49.852;19.700;2023-03-20T20:42:53;10.80;1.00
21849;DHT22;11089;49.852;19.700;2023-03-20T20:45:56;10.70;1.00
21849;DHT22;11089;49.852;19.700;2023-03-20T20:48:57;10.70;1.00
21849;DHT22;11089;49.852;19.700;2023-03-20T20:51:59;10.70;99.90
21849;DHT22;11089;49.852;19.700;2023-03-20T20:54:59;10.70;1.00
21849;DHT22;11089;49.852;19.700;2023-03-20T20:58:00;10.60;1.00
21849;DHT22;11089;49.852;19.700;2023-03-20T21:01:03;10.60;99.90
21849;DHT22;11089;49.852;19.700;2023-03-20T21:04:04;10.70;1.00
21849;DHT22;11089;49.852;19.700;2023-03-20T21:07:06;10.60;1.00
21849;DHT22;11089;49.852;19.700;2023-03-20T21:10:08;11.60;99.90
21849;DHT22;11089;49.852;19.700;2023-03-20T21:13:09;10.60;99.90
21849;DHT22;11089;49.852;19.700;2023-03-20T21:16:10;10.60;1.00
21849;DHT22;11089;49.852;19.700;2023-03-20T21:19:11;10.70;99.90
21849;DHT22;11089;49.852;19.700;2023-03-20T21:22:13;10.70;73.90
21849;DHT22;11089;49.852;19.700;2023-03-20T21:25:15;10.70;1.00
21849;DHT22;11089;49.852;19.700;2023-03-20T21:28:16;10.70;1.00
21849;DHT22;11089;49.852;19.700;2023-03-20T21:31:24;10.60;1.00
21849;DHT22;11089;49.852;19.700;2023-03-20T21:34:26;10.50;99.90
21849;DHT22;11089;49.852;19.700;2023-03-20T21:37:28;10.50;99.90
21849;DHT22;11089;49.852;19.700;2023-03-20T21:40:29;10.50;1.00
21849;DHT22;11089;49.852;19.700;2023-03-20T21:43:30;10.30;1.00
21849;DHT22;11089;49.852;19.700;2023-03-20T21:46:31;10.10;67.10
21849;DHT22;11089;49.852;19.700;2023-03-20T21:49:33;10.20;1.00
21849;DHT22;11089;49.852;19.700;2023-03-20T21:52:34;10.30;99.90
21849;DHT22;11089;49.852;19.700;2023-03-20T21:55:35;10.20;1.00
21849;DHT22;11089;49.852;19.700;2023-03-20T21:58:36;10.10;85.80
21849;DHT22;11089;49.852;19.700;2023-03-20T22:01:37;10.10;1.00
21849;DHT22;11089;49.852;19.700;2023-03-20T22:04:38;10.10;99.90
21849;DHT22;11089;49.852;19.700;2023-03-20T22:07:38;10.00;99.90